Impacts TAF Board
For situational awareness. Not to be used for flight planning purposes.
IDs:

KSEA - Seattle-Tacoma Intl, WA, US

Issued at 0857 UTC 16 Jul 2019
Updated at 1001 UTC 16 Jul 2019
Potential Impact None Slight Moderate High
Time0953Z 16/11Z 16/12Z 16/13Z 16/14Z 16/15Z 16/16Z 16/17Z 16/18Z 16/19Z 16/20Z 16/21Z 16/22Z 16/23Z>>
Type OBS PRVL
  [TEMP]  
PRVL PRVL PRVL PRVL PRVL PRVL PRVL PRVL PRVL PRVL PRVL PRVL
VIS 10 >6 >6 >6 >6 >6 >6 >6 >6 >6 >6 >6 >6 >6
CIG 47 40
  [30]  
22 22 22 22 22 22 35 35 35 35 35 50
Cover BKN BKN
  [OVC]  
OVC OVC OVC OVC OVC OVC BKN BKN BKN BKN BKN BKN
FltCat VFR VFR
  [MVFR]  
MVFR MVFR MVFR MVFR MVFR MVFR VFR VFR VFR VFR VFR VFR
WX -- --
  [--]  
-- -- -- -- -- -- VCSH VCSH VCSH VCSH VCSH VCSH
WDir 160 220
[220]
210 210 210 210 210 210 240 240 240 240 240 250
WSpd 3 5
  [5]  
5 5 5 5 5 5 7 7 7 7 7 8
WGst -- --
  [--]  
-- -- -- -- -- -- -- -- -- -- -- --
Raw TAF
KSEA 160857Z 1609/1712 22005KT P6SM BKN040 BKN070
  TEMPO 1609/1612 BKN030 OVC060
  FM161200 21005KT P6SM OVC022
  FM161800 24007KT P6SM VCSH BKN035
  FM162300 25008KT P6SM VCSH BKN050 BKN120
  FM170900 21006KT P6SM OVC028


Raw METAR
KSEA 160953Z 16003KT 10SM FEW025 BKN047 17/14 A3004 RMK AO2 SLP176 T01670139
KSEA 160853Z 24003KT 10SM FEW030 BKN055 17/14 A3004 RMK AO2 SLP177 60000 T01720144 58004
KSEA 160753Z 23005KT 10SM FEW027 BKN045 BKN080 18/14 A3005 RMK AO2 RAB04E15 SLP180 P0000 T01780144 402170167
KSEA 160733Z 22006KT 10SM SCT021 BKN043 BKN060 18/14 A3005 RMK AO2 RAB04E15 P0000 T01830144

METAR Board
Radar Display
Forecast Discussion
For situational awareness. Not to be used for flight planning purposes.